Impacts METAR Board
IDs:

KPDX - Portland Intl Arpt, OR, US

Updated at: 2100 UTC 15 Jun 2019
Potential Impact None Slight Moderate High
Time 15/09Z 15/10Z 15/11Z 15/12Z 15/13Z 15/14Z 15/15Z 15/16Z 15/17Z 15/18Z 15/19Z 15/20Z 15/21Z
Temp56 56 56 57 57 57 57 58 59 60 61 64 68
Dewpt48 48 48 48 48 48 48 49 48 49 49 49 50
Altim30.07 30.08 30.08 30.08 30.08 30.08 30.09 30.09 30.09 30.09 30.09 30.08 30.05
VIS10 10 10 10 10 10 10 10 10 10 10 10 10
CIG-- 23 19 20 19 20 20 20 20 21 22 24 --
CoverSCTOVCOVCOVCOVCOVCOVCOVCOVCOVCOVCBKNFEW
FltCatVFRMVFRMVFRMVFRMVFRMVFRMVFRMVFRMVFRMVFRMVFRMVFRVFR
WX--------------------------
WDir3303303303303400330310290310290100
WSpd6 6 6 7 4 5 5 8 6 8 4 7 0
WGst-- -- -- -- -- -- -- -- -- -- -- -- --
Raw hourly METARs
KPDX 150853Z 33006KT 10SM SCT017 13/09 A3007 RMK AO2 SLP182 T01330089 53004
KPDX 150953Z 33006KT 10SM OVC023 13/09 A3008 RMK AO2 SLP184 T01330089
KPDX 151053Z 33006KT 10SM OVC019 13/09 A3008 RMK AO2 SLP183 T01330089
KPDX 151153Z 33007KT 10SM OVC020 14/09 A3008 RMK AO2 SLP183 T01390089 10161 20133 51001
KPDX 151253Z 34004KT 10SM OVC019 14/09 A3008 RMK AO2 SLP184 T01390089
KPDX 151353Z VRB05KT 10SM OVC020 14/09 A3008 RMK AO2 SLP184 T01390089
KPDX 151453Z 33005KT 10SM OVC020 14/09 A3009 RMK AO2 SLP187 T01390089 53003
KPDX 151553Z 31008KT 10SM OVC020 14/09 A3009 RMK AO2 SLP188 T01440094
KPDX 151653Z 29006KT 10SM OVC020 15/09 A3009 RMK AO2 SLP187 T01500089
KPDX 151753Z 31008KT 10SM OVC021 16/09 A3009 RMK AO2 SLP187 T01560094 10156 20139 51000
KPDX 151853Z 29004KT 10SM OVC022 16/09 A3009 RMK AO2 SLP188 T01610094
KPDX 151953Z 01007KT 10SM BKN024 18/09 A3008 RMK AO2 SLP185 T01780094
KPDX 152053Z 00000KT 10SM FEW028 FEW300 20/10 A3005 RMK AO2 SLP175 T02000100 58012



Page loaded:  21:16 UTC  |   02:16 PM Pacific  |   03:16 PM Mountain  |   04:16 PM Central  |   05:16 PM Eastern

 

ADVISORIES

FORECASTS

FORECASTS

OBSERVATIONS

USER TOOLS

ABOUT US